sensor_id;sensor_type;location;lat;lon;timestamp;P1;durP1;ratioP1;P2;durP2;ratioP2
45940;SDS011;31858;46.008;8.978;2022-09-03T00:00:06;4.85;;;2.85;;
45940;SDS011;31858;46.008;8.978;2022-09-03T00:10:11;7.10;;;4.45;;
45940;SDS011;31858;46.008;8.978;2022-09-03T00:20:23;4.57;;;4.07;;
45940;SDS011;31858;46.008;8.978;2022-09-03T00:30:28;7.50;;;3.40;;
45940;SDS011;31858;46.008;8.978;2022-09-03T00:40:37;4.20;;;3.40;;
45940;SDS011;31858;46.008;8.978;2022-09-03T00:50:53;8.07;;;4.80;;
45940;SDS011;31858;46.008;8.978;2022-09-03T01:01:06;10.98;;;4.28;;
45940;SDS011;31858;46.008;8.978;2022-09-03T01:11:15;8.10;;;4.70;;
45940;SDS011;31858;46.008;8.978;2022-09-03T01:21:46;5.63;;;3.70;;
45940;SDS011;31858;46.008;8.978;2022-09-03T01:32:06;5.28;;;3.10;;
45940;SDS011;31858;46.008;8.978;2022-09-03T01:42:17;3.40;;;3.10;;
45940;SDS011;31858;46.008;8.978;2022-09-03T01:52:33;3.30;;;3.00;;
45940;SDS011;31858;46.008;8.978;2022-09-03T02:02:44;4.32;;;3.35;;
45940;SDS011;31858;46.008;8.978;2022-09-03T02:12:50;7.68;;;6.97;;
45940;SDS011;31858;46.008;8.978;2022-09-03T02:22:54;9.93;;;8.95;;
45940;SDS011;31858;46.008;8.978;2022-09-03T02:32:59;9.68;;;8.77;;
45940;SDS011;31858;46.008;8.978;2022-09-03T02:43:01;8.35;;;7.65;;
45940;SDS011;31858;46.008;8.978;2022-09-03T02:53:07;17.08;;;13.23;;
45940;SDS011;31858;46.008;8.978;2022-09-03T03:03:09;16.40;;;13.10;;
45940;SDS011;31858;46.008;8.978;2022-09-03T03:13:12;17.50;;;15.60;;
45940;SDS011;31858;46.008;8.978;2022-09-03T03:23:14;17.75;;;15.57;;
45940;SDS011;31858;46.008;8.978;2022-09-03T03:33:17;16.83;;;15.20;;
45940;SDS011;31858;46.008;8.978;2022-09-03T03:43:19;17.08;;;15.10;;
45940;SDS011;31858;46.008;8.978;2022-09-03T03:53:22;14.60;;;13.23;;
45940;SDS011;31858;46.008;8.978;2022-09-03T04:03:24;9.57;;;8.65;;
45940;SDS011;31858;46.008;8.978;2022-09-03T04:13:28;12.05;;;7.60;;
45940;SDS011;31858;46.008;8.978;2022-09-03T04:23:31;8.15;;;6.47;;
45940;SDS011;31858;46.008;8.978;2022-09-03T04:33:34;11.50;;;10.30;;
45940;SDS011;31858;46.008;8.978;2022-09-03T04:43:37;15.50;;;13.98;;
45940;SDS011;31858;46.008;8.978;2022-09-03T04:53:40;18.20;;;12.35;;
45940;SDS011;31858;46.008;8.978;2022-09-03T05:03:44;13.18;;;11.90;;
45940;SDS011;31858;46.008;8.978;2022-09-03T05:13:48;16.08;;;13.10;;
45940;SDS011;31858;46.008;8.978;2022-09-03T05:23:51;7.55;;;6.15;;
45940;SDS011;31858;46.008;8.978;2022-09-03T05:33:54;7.95;;;6.25;;
45940;SDS011;31858;46.008;8.978;2022-09-03T05:43:58;8.20;;;7.25;;
45940;SDS011;31858;46.008;8.978;2022-09-03T05:54:02;8.45;;;6.30;;
45940;SDS011;31858;46.008;8.978;2022-09-03T06:04:04;7.57;;;6.97;;
45940;SDS011;31858;46.008;8.978;2022-09-03T06:14:09;9.85;;;8.60;;
45940;SDS011;31858;46.008;8.978;2022-09-03T06:24:13;9.40;;;8.50;;
45940;SDS011;31858;46.008;8.978;2022-09-03T06:34:16;10.40;;;9.38;;
45940;SDS011;31858;46.008;8.978;2022-09-03T06:44:18;13.30;;;11.73;;
45940;SDS011;31858;46.008;8.978;2022-09-03T06:54:21;10.32;;;9.45;;
45940;SDS011;31858;46.008;8.978;2022-09-03T07:04:24;11.90;;;10.68;;
45940;SDS011;31858;46.008;8.978;2022-09-03T07:14:27;9.05;;;8.15;;
45940;SDS011;31858;46.008;8.978;2022-09-03T07:24:29;9.18;;;8.38;;
45940;SDS011;31858;46.008;8.978;2022-09-03T07:34:32;10.68;;;8.02;;
45940;SDS011;31858;46.008;8.978;2022-09-03T07:44:34;7.13;;;6.43;;
45940;SDS011;31858;46.008;8.978;2022-09-03T07:54:37;5.60;;;5.10;;
45940;SDS011;31858;46.008;8.978;2022-09-03T08:04:40;9.88;;;5.97;;
45940;SDS011;31858;46.008;8.978;2022-09-03T08:14:44;7.80;;;7.10;;
45940;SDS011;31858;46.008;8.978;2022-09-03T08:24:45;6.75;;;6.15;;
45940;SDS011;31858;46.008;8.978;2022-09-03T08:34:48;5.55;;;5.05;;
45940;SDS011;31858;46.008;8.978;2022-09-03T08:44:51;7.25;;;4.47;;
45940;SDS011;31858;46.008;8.978;2022-09-03T08:55:01;7.50;;;6.78;;
45940;SDS011;31858;46.008;8.978;2022-09-03T09:05:15;7.10;;;5.93;;
45940;SDS011;31858;46.008;8.978;2022-09-03T09:15:25;6.10;;;5.60;;
45940;SDS011;31858;46.008;8.978;2022-09-03T09:25:33;7.00;;;6.30;;
45940;SDS011;31858;46.008;8.978;2022-09-03T09:35:43;7.43;;;6.83;;
45940;SDS011;31858;46.008;8.978;2022-09-03T09:45:46;6.72;;;5.85;;
45940;SDS011;31858;46.008;8.978;2022-09-03T09:55:51;5.82;;;5.30;;
45940;SDS011;31858;46.008;8.978;2022-09-03T10:05:57;5.70;;;5.22;;
45940;SDS011;31858;46.008;8.978;2022-09-03T10:16:26;4.90;;;4.50;;
45940;SDS011;31858;46.008;8.978;2022-09-03T10:26:29;6.15;;;5.55;;
45940;SDS011;31858;46.008;8.978;2022-09-03T10:36:35;6.80;;;6.10;;
45940;SDS011;31858;46.008;8.978;2022-09-03T10:46:47;4.50;;;4.10;;
45940;SDS011;31858;46.008;8.978;2022-09-03T10:57:02;4.05;;;3.33;;
45940;SDS011;31858;46.008;8.978;2022-09-03T11:07:12;4.55;;;3.55;;
45940;SDS011;31858;46.008;8.978;2022-09-03T11:17:18;4.63;;;4.18;;
45940;SDS011;31858;46.008;8.978;2022-09-03T11:27:28;8.07;;;5.77;;
45940;SDS011;31858;46.008;8.978;2022-09-03T11:37:51;30.00;;;26.85;;
45940;SDS011;31858;46.008;8.978;2022-09-03T11:47:58;4.72;;;4.22;;
45940;SDS011;31858;46.008;8.978;2022-09-03T11:58:10;4.57;;;4.13;;
45940;SDS011;31858;46.008;8.978;2022-09-03T12:08:25;7.70;;;4.90;;
45940;SDS011;31858;46.008;8.978;2022-09-03T12:18:47;4.70;;;4.18;;
45940;SDS011;31858;46.008;8.978;2022-09-03T12:28:52;5.22;;;4.20;;
45940;SDS011;31858;46.008;8.978;2022-09-03T12:39:06;5.00;;;4.47;;
45940;SDS011;31858;46.008;8.978;2022-09-03T12:49:13;7.35;;;4.10;;
45940;SDS011;31858;46.008;8.978;2022-09-03T12:59:16;5.68;;;4.13;;
45940;SDS011;31858;46.008;8.978;2022-09-03T13:09:21;5.13;;;4.20;;
45940;SDS011;31858;46.008;8.978;2022-09-03T13:19:33;3.78;;;3.13;;
45940;SDS011;31858;46.008;8.978;2022-09-03T13:29:51;3.70;;;3.35;;
45940;SDS011;31858;46.008;8.978;2022-09-03T13:40:09;2.88;;;2.63;;
45940;SDS011;31858;46.008;8.978;2022-09-03T13:50:37;3.42;;;2.92;;
45940;SDS011;31858;46.008;8.978;2022-09-03T14:00:45;7.22;;;2.80;;
45940;SDS011;31858;46.008;8.978;2022-09-03T14:10:51;2.90;;;2.60;;
45940;SDS011;31858;46.008;8.978;2022-09-03T14:21:02;3.63;;;2.47;;
45940;SDS011;31858;46.008;8.978;2022-09-03T14:31:10;2.72;;;2.20;;
45940;SDS011;31858;46.008;8.978;2022-09-03T14:41:21;2.83;;;2.60;;
45940;SDS011;31858;46.008;8.978;2022-09-03T14:51:38;2.67;;;2.47;;
45940;SDS011;31858;46.008;8.978;2022-09-03T15:01:53;4.25;;;2.70;;
45940;SDS011;31858;46.008;8.978;2022-09-03T15:12:17;6.60;;;3.10;;
45940;SDS011;31858;46.008;8.978;2022-09-03T15:22:27;3.95;;;2.60;;
45940;SDS011;31858;46.008;8.978;2022-09-03T15:32:41;3.92;;;2.80;;
45940;SDS011;31858;46.008;8.978;2022-09-03T15:42:51;2.60;;;2.40;;
45940;SDS011;31858;46.008;8.978;2022-09-03T15:53:01;5.05;;;3.10;;
45940;SDS011;31858;46.008;8.978;2022-09-03T16:03:10;2.93;;;2.73;;
45940;SDS011;31858;46.008;8.978;2022-09-03T16:24:08;3.35;;;2.50;;
45940;SDS011;31858;46.008;8.978;2022-09-03T16:34:19;2.85;;;2.63;;
45940;SDS011;31858;46.008;8.978;2022-09-03T16:44:34;11.48;;;3.17;;
45940;SDS011;31858;46.008;8.978;2022-09-03T16:54:51;7.60;;;3.20;;
45940;SDS011;31858;46.008;8.978;2022-09-03T17:15:40;3.70;;;3.40;;
45940;SDS011;31858;46.008;8.978;2022-09-03T17:25:49;4.82;;;3.10;;
45940;SDS011;31858;46.008;8.978;2022-09-03T17:35:58;7.30;;;3.00;;
45940;SDS011;31858;46.008;8.978;2022-09-03T17:46:12;3.50;;;3.20;;
45940;SDS011;31858;46.008;8.978;2022-09-03T17:56:24;4.20;;;3.35;;
45940;SDS011;31858;46.008;8.978;2022-09-03T18:06:31;7.68;;;3.33;;
45940;SDS011;31858;46.008;8.978;2022-09-03T18:16:46;6.47;;;3.83;;
45940;SDS011;31858;46.008;8.978;2022-09-03T18:26:54;6.78;;;3.92;;
45940;SDS011;31858;46.008;8.978;2022-09-03T18:37:19;10.32;;;3.63;;
45940;SDS011;31858;46.008;8.978;2022-09-03T18:47:43;5.03;;;3.60;;
45940;SDS011;31858;46.008;8.978;2022-09-03T18:58:13;5.15;;;3.30;;
45940;SDS011;31858;46.008;8.978;2022-09-03T19:08:50;5.90;;;3.67;;
45940;SDS011;31858;46.008;8.978;2022-09-03T19:19:29;5.82;;;3.63;;
45940;SDS011;31858;46.008;8.978;2022-09-03T19:30:02;4.60;;;3.17;;
45940;SDS011;31858;46.008;8.978;2022-09-03T19:40:33;3.65;;;3.22;;
45940;SDS011;31858;46.008;8.978;2022-09-03T19:51:05;5.45;;;3.30;;
45940;SDS011;31858;46.008;8.978;2022-09-03T20:01:33;5.28;;;3.30;;
45940;SDS011;31858;46.008;8.978;2022-09-03T20:11:55;4.63;;;3.80;;
45940;SDS011;31858;46.008;8.978;2022-09-03T20:22:03;3.92;;;3.55;;
45940;SDS011;31858;46.008;8.978;2022-09-03T20:32:16;4.93;;;3.42;;
45940;SDS011;31858;46.008;8.978;2022-09-03T20:42:39;6.50;;;3.88;;
45940;SDS011;31858;46.008;8.978;2022-09-03T20:53:00;5.97;;;3.88;;
45940;SDS011;31858;46.008;8.978;2022-09-03T21:03:16;7.57;;;4.10;;
45940;SDS011;31858;46.008;8.978;2022-09-03T21:13:23;5.97;;;3.63;;
45940;SDS011;31858;46.008;8.978;2022-09-03T21:23:38;5.50;;;3.85;;
45940;SDS011;31858;46.008;8.978;2022-09-03T21:33:45;8.30;;;3.60;;
45940;SDS011;31858;46.008;8.978;2022-09-03T21:43:51;7.97;;;3.88;;
45940;SDS011;31858;46.008;8.978;2022-09-03T21:53:58;8.95;;;3.70;;
45940;SDS011;31858;46.008;8.978;2022-09-03T22:04:04;4.85;;;3.88;;
45940;SDS011;31858;46.008;8.978;2022-09-03T22:14:06;3.30;;;3.00;;
45940;SDS011;31858;46.008;8.978;2022-09-03T22:24:13;4.38;;;3.97;;
45940;SDS011;31858;46.008;8.978;2022-09-03T22:34:28;3.40;;;3.17;;
45940;SDS011;31858;46.008;8.978;2022-09-03T22:44:44;5.10;;;3.53;;
45940;SDS011;31858;46.008;8.978;2022-09-03T23:05:19;6.68;;;4.45;;
45940;SDS011;31858;46.008;8.978;2022-09-03T23:15:30;4.65;;;3.50;;
45940;SDS011;31858;46.008;8.978;2022-09-03T23:25:36;4.20;;;3.72;;
45940;SDS011;31858;46.008;8.978;2022-09-03T23:35:43;4.43;;;3.85;;
45940;SDS011;31858;46.008;8.978;2022-09-03T23:45:57;4.70;;;4.22;;
45940;SDS011;31858;46.008;8.978;2022-09-03T23:56:12;6.25;;;3.53;;
